Time;durP1;ratioP1;P1;durP2;ratioP2;P2;SDS_P1;SDS_P2;PMS_P1;PMS_P2;Temp;Humidity;BMP_temperature;BMP_pressure;BME280_temperature;BME280_humidity;BME280_pressure;Samples;Min_cycle;Max_cycle;Signal;HPM_P1;HPM_P2
2021/03/29 08:59:29;;;;;;;11.30;3.20;;;14.90;78.40;;;;;;5065805;27;20458;-58
2021/03/29 09:01:56;;;;;;;12.03;3.07;;;14.70;78.70;;;;;;5046436;28;20033;-59
2021/03/29 09:04:21;;;;;;;12.27;2.83;;;14.80;78.80;;;;;;5055387;28;20040;-59
2021/03/29 09:06:57;;;;;;;11.33;2.93;;;15.00;74.70;;;;;;5054850;28;20029;-59
2021/03/29 09:09:23;;;;;;;6.50;2.00;;;15.30;69.60;;;;;;5056011;28;20052;-59
2021/03/29 09:11:52;;;;;;;6.67;2.23;;;15.40;62.10;;;;;;5056274;28;20373;-58
2021/03/29 09:14:20;;;;;;;5.40;1.43;;;15.60;57.70;;;;;;5055806;28;20037;-58
2021/03/29 09:16:57;;;;;;;11.00;2.00;;;15.80;50.80;;;;;;5054632;28;20040;-57
2021/03/29 09:19:23;;;;;;;7.67;1.90;;;16.10;50.40;;;;;;5057002;28;20029;-58
2021/03/29 09:21:58;;;;;;;4.17;1.37;;;16.20;51.70;;;;;;5056661;28;20036;-58
2021/03/29 09:24:29;;;;;;;6.23;2.33;;;16.30;49.50;;;;;;5056633;28;20025;-58
2021/03/29 09:27:08;;;;;;;9.23;1.63;;;16.40;48.30;;;;;;5063346;28;20063;-58
2021/03/29 09:29:41;;;;;;;6.47;1.83;;;16.60;47.80;;;;;;5054811;28;20067;-59
2021/03/29 09:32:25;;;;;;;5.07;1.30;;;16.70;47.20;;;;;;5055129;28;20037;-58
2021/03/29 09:34:55;;;;;;;4.83;1.67;;;16.80;46.70;;;;;;5072240;28;20043;-58
2021/03/29 09:37:25;;;;;;;9.43;1.87;;;16.80;44.80;;;;;;5054718;28;20034;-59
2021/03/29 09:39:58;;;;;;;6.37;1.63;;;16.90;44.10;;;;;;5052616;28;20052;-59
2021/03/29 09:42:47;;;;;;;4.13;1.50;;;17.00;44.60;;;;;;5046433;28;20025;-59
2021/03/29 09:45:25;;;;;;;5.73;1.40;;;17.10;43.00;;;;;;5055800;28;20055;-58
2021/03/29 09:48:03;;;;;;;4.43;1.47;;;17.10;41.90;;;;;;5052448;28;20342;-59
2021/03/29 09:50:37;;;;;;;7.57;2.40;;;17.10;42.30;;;;;;5055501;28;20047;-58
2021/03/29 09:53:23;;;;;;;4.10;1.50;;;17.20;42.50;;;;;;5054769;28;20033;-59
2021/03/29 09:55:51;;;;;;;6.88;2.00;;;17.30;43.10;;;;;;5054396;28;20539;-58
2021/03/29 09:58:33;;;;;;;8.17;1.83;;;17.40;41.50;;;;;;5053247;28;20554;-61
2021/03/29 10:01:01;;;;;;;2.83;1.20;;;17.40;41.60;;;;;;5055485;28;20051;-60
2021/03/29 10:03:32;;;;;;;4.07;1.20;;;17.50;40.70;;;;;;5054223;28;20275;-60
2021/03/29 10:05:57;;;;;;;4.72;1.20;;;17.50;40.60;;;;;;5054478;28;20021;-60
2021/03/29 10:08:34;;;;;;;6.05;1.40;;;17.50;40.10;;;;;;5060980;28;20032;-60
2021/03/29 10:11:06;;;;;;;9.25;1.38;;;17.50;40.00;;;;;;5041706;28;20864;-60
2021/03/29 10:13:41;;;;;;;5.07;1.33;;;17.50;39.50;;;;;;5040518;28;20036;-59
2021/03/29 10:16:23;;;;;;;4.18;1.02;;;17.60;38.70;;;;;;5041311;28;20059;-60
2021/03/29 10:19:07;;;;;;;3.67;1.55;;;17.70;38.80;;;;;;5056527;28;20033;-60
2021/03/29 10:21:34;;;;;;;3.60;1.20;;;17.70;39.00;;;;;;5041520;28;20033;-59
2021/03/29 10:24:14;;;;;;;6.70;1.85;;;17.80;39.00;;;;;;5039221;28;20033;-60
2021/03/29 10:26:54;;;;;;;5.53;1.95;;;17.80;39.10;;;;;;5041216;28;20104;-60
2021/03/29 10:29:49;;;;;;;6.32;1.73;;;17.90;38.80;;;;;;5047109;28;20033;-60
2021/03/29 10:32:19;;;;;;;6.28;1.45;;;18.00;39.40;;;;;;5032691;28;20135;-59
2021/03/29 10:34:48;;;;;;;3.63;1.40;;;18.10;38.00;;;;;;5038643;28;20029;-60
2021/03/29 10:37:32;;;;;;;3.55;1.40;;;18.10;37.50;;;;;;5048567;28;20029;-60
2021/03/29 10:39:59;;;;;;;4.05;1.27;;;18.20;37.60;;;;;;5020959;28;20127;-60
2021/03/29 10:42:30;;;;;;;5.05;1.50;;;18.20;37.80;;;;;;5040628;28;20025;-60
2021/03/29 10:44:56;;;;;;;5.07;1.50;;;18.30;37.60;;;;;;5041153;28;20021;-59
2021/03/29 10:47:23;;;;;;;5.03;1.15;;;18.30;38.00;;;;;;5041874;28;20093;-63
2021/03/29 10:49:52;;;;;;;3.25;1.20;;;18.40;37.90;;;;;;5040104;28;20086;-61
2021/03/29 10:52:18;;;;;;;2.55;1.42;;;18.50;38.20;;;;;;5039494;28;20051;-59
2021/03/29 10:54:44;;;;;;;6.45;2.33;;;18.40;38.30;;;;;;5048920;28;20665;-59
2021/03/29 10:57:10;;;;;;;4.10;1.20;;;18.50;38.20;;;;;;5039993;28;20040;-59
2021/03/29 10:59:36;;;;;;;4.45;1.45;;;18.60;38.20;;;;;;5041459;28;20110;-60
2021/03/29 11:02:07;;;;;;;6.97;2.10;;;18.70;37.80;;;;;;5041716;28;20458;-59
2021/03/29 11:04:33;;;;;;;5.38;1.70;;;18.70;36.80;;;;;;5040752;28;20349;-59
2021/03/29 11:07:01;;;;;;;4.25;1.60;;;18.80;37.40;;;;;;5036932;28;20029;-60
2021/03/29 11:09:27;;;;;;;3.47;1.40;;;18.80;37.50;;;;;;5040310;28;20037;-59
2021/03/29 11:11:56;;;;;;;5.60;1.33;;;18.90;37.80;;;;;;5040525;28;20046;-60
2021/03/29 11:14:24;;;;;;;7.22;1.52;;;19.00;37.30;;;;;;5040438;28;20057;-60
2021/03/29 11:16:51;;;;;;;3.40;1.10;;;19.10;37.00;;;;;;5040844;28;20033;-61
2021/03/29 11:19:18;;;;;;;6.18;1.55;;;19.10;37.30;;;;;;5055680;28;20037;-60
2021/03/29 11:21:46;;;;;;;5.85;2.10;;;19.10;36.90;;;;;;5038629;28;20040;-60
2021/03/29 11:24:12;;;;;;;4.85;1.35;;;19.20;37.80;;;;;;5041004;28;20094;-60
2021/03/29 11:26:39;;;;;;;4.78;1.60;;;19.20;36.60;;;;;;5041711;28;21162;-61
2021/03/29 11:29:04;;;;;;;7.53;1.70;;;19.30;37.10;;;;;;5041340;28;20594;-60
2021/03/29 11:31:30;;;;;;;4.25;1.08;;;19.40;37.10;;;;;;5040994;28;20025;-59
2021/03/29 11:33:56;;;;;;;3.75;1.25;;;19.40;37.10;;;;;;5041222;28;20029;-59
2021/03/29 11:36:27;;;;;;;4.22;1.63;;;19.50;37.20;;;;;;5040832;28;20108;-60
2021/03/29 11:38:57;;;;;;;4.13;1.25;;;19.60;37.10;;;;;;5036257;28;20090;-59
2021/03/29 11:41:23;;;;;;;8.88;1.58;;;19.70;36.40;;;;;;5040614;28;20032;-60
2021/03/29 11:43:49;;;;;;;8.10;1.60;;;19.80;36.30;;;;;;5040061;28;20856;-59
2021/03/29 11:46:15;;;;;;;13.85;1.92;;;19.90;34.70;;;;;;5040267;28;20198;-59
2021/03/29 11:48:41;;;;;;;12.32;2.00;;;20.00;34.10;;;;;;5039774;28;20025;-59
2021/03/29 11:51:09;;;;;;;4.00;1.35;;;20.00;34.80;;;;;;5046794;28;20094;-60
2021/03/29 11:53:35;;;;;;;4.13;1.50;;;20.20;34.00;;;;;;5040235;28;20028;-60
2021/03/29 11:56:04;;;;;;;5.35;1.30;;;20.30;34.70;;;;;;5040339;28;20037;-60
2021/03/29 11:58:30;;;;;;;6.88;1.40;;;20.50;33.20;;;;;;5039950;28;20110;-59
2021/03/29 12:01:04;;;;;;;6.55;1.40;;;20.50;33.50;;;;;;5039858;28;20116;-59
2021/03/29 12:09:48;;;;;;;6.43;1.98;;;20.80;32.70;;;;;;5035746;28;20029;-60
2021/03/29 12:12:04;;;;;;;4.63;1.33;;;21.10;32.40;;;;;;5031224;28;20128;-60
2021/03/29 12:14:33;;;;;;;12.10;2.00;;;21.30;31.50;;;;;;5039194;28;20480;-59
2021/03/29 12:17:00;;;;;;;7.63;1.65;;;21.30;31.90;;;;;;5039724;28;20112;-60
2021/03/29 12:19:26;;;;;;;12.75;1.80;;;21.20;31.00;;;;;;5037247;28;20056;-59
2021/03/29 12:21:59;;;;;;;4.93;1.40;;;21.20;31.40;;;;;;5040352;28;20605;-61
2021/03/29 12:24:30;;;;;;;6.07;1.73;;;21.40;31.80;;;;;;5039400;28;22324;-60
2021/03/29 12:27:01;;;;;;;7.57;1.60;;;21.40;31.90;;;;;;5039921;28;20067;-61
2021/03/29 12:29:40;;;;;;;6.88;1.65;;;21.40;32.60;;;;;;5055445;28;20061;-61
2021/03/29 12:32:10;;;;;;;7.07;1.77;;;21.80;30.10;;;;;;5039730;28;20346;-61
2021/03/29 12:34:39;;;;;;;5.10;1.33;;;21.90;30.20;;;;;;5039482;28;20500;-61
2021/03/29 12:37:07;;;;;;;5.75;1.52;;;22.30;29.60;;;;;;5038587;28;20060;-60
2021/03/29 12:39:38;;;;;;;6.03;1.70;;;22.90;30.80;;;;;;5035389;28;20029;-60
2021/03/29 12:42:07;;;;;;;8.15;1.80;;;23.60;30.10;;;;;;5045875;28;20025;-59
2021/03/29 12:44:36;;;;;;;7.43;1.38;;;24.90;29.80;;;;;;5038766;28;20036;-60
2021/03/29 12:47:09;;;;;;;10.65;1.75;;;26.10;29.30;;;;;;5038188;28;20120;-60
2021/03/29 12:49:35;;;;;;;4.78;1.50;;;26.70;28.50;;;;;;5034967;28;20118;-60
2021/03/29 12:52:03;;;;;;;5.30;1.45;;;27.00;28.60;;;;;;5045116;28;20021;-60
2021/03/29 12:54:33;;;;;;;4.82;1.58;;;27.10;27.40;;;;;;5038968;28;20025;-59
2021/03/29 12:57:00;;;;;;;5.18;2.08;;;27.10;27.50;;;;;;5039427;28;20056;-60
2021/03/29 12:59:31;;;;;;;5.55;1.83;;;26.70;27.80;;;;;;5038402;28;20052;-60
2021/03/29 13:02:01;;;;;;;5.82;2.38;;;26.80;28.10;;;;;;5036083;28;20111;-59
2021/03/29 13:04:31;;;;;;;9.95;1.90;;;27.10;28.50;;;;;;5038725;28;20042;-59
2021/03/29 13:07:22;;;;;;;3.97;1.65;;;28.20;28.50;;;;;;5037310;28;20032;-60
2021/03/29 13:12:22;;;;;;;5.68;1.55;;;28.30;27.30;;;;;;5039012;28;20493;-61
2021/03/29 13:15:08;;;;;;;8.40;2.40;;;28.60;27.10;;;;;;5038046;28;20587;-61
2021/03/29 13:17:43;;;;;;;2.63;1.48;;;28.40;26.60;;;;;;5038240;28;20032;-60
2021/03/29 13:20:15;;;;;;;6.78;1.40;;;28.20;26.00;;;;;;5038864;28;20106;-60
2021/03/29 13:22:46;;;;;;;8.73;2.60;;;27.80;26.50;;;;;;5037189;28;20112;-60
2021/03/29 13:25:13;;;;;;;3.65;1.95;;;28.50;26.80;;;;;;5038991;28;20147;-61
2021/03/29 13:27:39;;;;;;;4.45;1.30;;;30.20;25.90;;;;;;5039304;28;20063;-60
2021/03/29 13:30:11;;;;;;;3.90;1.50;;;30.30;26.20;;;;;;5038306;28;20056;-61
2021/03/29 13:32:39;;;;;;;4.57;1.88;;;30.60;26.60;;;;;;5038153;28;20993;-61
2021/03/29 13:35:06;;;;;;;8.57;1.70;;;30.60;27.20;;;;;;5038601;28;20033;-61
2021/03/29 13:37:34;;;;;;;5.68;1.75;;;31.90;26.10;;;;;;5037378;28;20033;-60
2021/03/29 13:40:02;;;;;;;4.95;1.70;;;31.70;26.50;;;;;;5029022;28;20063;-61
2021/03/29 13:42:28;;;;;;;5.88;2.33;;;30.90;26.70;;;;;;5038828;28;20098;-61
2021/03/29 13:44:54;;;;;;;6.65;2.10;;;31.40;27.10;;;;;;5039246;28;20829;-61
2021/03/29 13:47:20;;;;;;;6.15;2.15;;;32.20;26.80;;;;;;5042121;28;20113;-61
2021/03/29 13:49:46;;;;;;;7.28;1.63;;;33.40;25.70;;;;;;5041866;28;20029;-61
2021/03/29 13:52:13;;;;;;;6.38;2.00;;;33.20;25.60;;;;;;5042645;28;20037;-62
2021/03/29 13:54:39;;;;;;;7.95;1.75;;;32.20;24.80;;;;;;5041049;28;20025;-60
2021/03/29 13:57:07;;;;;;;8.45;1.80;;;32.00;24.90;;;;;;5042249;28;20477;-60
2021/03/29 13:59:36;;;;;;;8.15;1.67;;;32.60;24.50;;;;;;5032285;28;20135;-61
2021/03/29 14:02:09;;;;;;;6.68;1.90;;;32.50;24.80;;;;;;5041919;28;20037;-61
2021/03/29 14:04:35;;;;;;;3.63;1.80;;;32.80;24.70;;;;;;5041665;28;20124;-62
2021/03/29 14:07:03;;;;;;;4.00;1.50;;;32.10;24.90;;;;;;5042558;28;20117;-61
2021/03/29 14:09:31;;;;;;;6.47;1.67;;;31.70;24.80;;;;;;5041862;28;20033;-60
2021/03/29 14:11:57;;;;;;;6.20;2.08;;;30.80;24.70;;;;;;5042058;28;20445;-60
2021/03/29 14:14:24;;;;;;;6.05;1.75;;;29.80;25.20;;;;;;5041729;28;20048;-60
2021/03/29 14:16:52;;;;;;;5.43;2.03;;;30.10;25.30;;;;;;5041807;28;20120;-61
2021/03/29 14:19:20;;;;;;;4.90;1.65;;;30.60;24.90;;;;;;5041886;28;20033;-61
2021/03/29 14:21:50;;;;;;;3.88;1.48;;;31.20;25.00;;;;;;5041460;28;20496;-60
2021/03/29 14:24:20;;;;;;;4.37;1.80;;;31.30;24.90;;;;;;5041504;28;20369;-61
2021/03/29 14:26:46;;;;;;;6.05;2.00;;;30.60;25.40;;;;;;5038796;28;20822;-61
2021/03/29 14:29:13;;;;;;;3.78;1.38;;;30.90;25.50;;;;;;5041068;28;20124;-61
2021/03/29 14:31:40;;;;;;;7.22;1.40;;;30.30;24.60;;;;;;5040483;28;20025;-60
2021/03/29 14:34:12;;;;;;;7.40;1.25;;;30.20;25.40;;;;;;5042034;28;20029;-61
2021/03/29 14:46:48;;;;;;;4.30;1.38;;;31.30;25.20;;;;;;5040694;28;20037;-60
2021/03/29 14:49:14;;;;;;;4.65;1.52;;;31.10;25.10;;;;;;5041117;28;20028;-61
2021/03/29 14:51:40;;;;;;;3.65;1.65;;;31.70;25.20;;;;;;5047873;28;20442;-61
2021/03/29 14:54:06;;;;;;;3.88;1.55;;;32.30;25.00;;;;;;5041879;28;20032;-61
2021/03/29 14:56:32;;;;;;;3.97;1.90;;;32.70;25.00;;;;;;5037707;28;20035;-61
2021/03/29 14:58:58;;;;;;;6.22;2.08;;;32.70;25.50;;;;;;5040865;28;20052;-61
2021/03/29 15:01:24;;;;;;;3.67;1.60;;;33.00;25.20;;;;;;5040912;28;20124;-61
2021/03/29 15:03:54;;;;;;;3.60;1.40;;;33.20;24.90;;;;;;5037268;28;20033;-60
2021/03/29 15:08:45;;;;;;;4.13;1.45;;;32.90;25.00;;;;;;5040670;28;20056;-60
2021/03/29 15:11:11;;;;;;;3.30;1.63;;;32.60;24.90;;;;;;5040393;28;20029;-60
2021/03/29 15:13:39;;;;;;;7.00;2.20;;;32.20;25.30;;;;;;5040308;28;20687;-60
2021/03/29 15:16:05;;;;;;;4.82;1.50;;;32.10;25.80;;;;;;5057535;28;20087;-60
2021/03/29 15:18:30;;;;;;;4.57;1.35;;;31.60;25.50;;;;;;5043390;28;20032;-59
2021/03/29 15:20:56;;;;;;;7.13;1.75;;;30.20;26.00;;;;;;5041214;28;20032;-61
2021/03/29 15:23:22;;;;;;;4.45;2.30;;;29.80;26.80;;;;;;5040296;28;20033;-60
2021/03/29 15:25:50;;;;;;;4.78;1.80;;;30.20;27.10;;;;;;5040701;28;20033;-60
2021/03/29 15:28:16;;;;;;;6.07;1.60;;;30.70;26.10;;;;;;5038102;28;20033;-62
2021/03/29 15:30:42;;;;;;;5.00;1.90;;;31.00;26.10;;;;;;5040540;28;20029;-61
2021/03/29 15:33:10;;;;;;;6.05;2.08;;;30.50;26.00;;;;;;5040679;28;20029;-61
2021/03/29 15:35:36;;;;;;;6.72;2.08;;;29.30;27.00;;;;;;5039225;28;20041;-61
2021/03/29 15:38:01;;;;;;;4.75;1.52;;;29.10;27.10;;;;;;5039838;28;20606;-61
2021/03/29 15:40:27;;;;;;;5.28;1.70;;;28.80;27.50;;;;;;5037186;28;20048;-60
2021/03/29 15:42:53;;;;;;;3.55;1.75;;;28.70;27.80;;;;;;5038768;28;20120;-60
2021/03/29 15:45:21;;;;;;;6.05;1.75;;;29.00;27.90;;;;;;5040645;28;20692;-61
2021/03/29 15:47:49;;;;;;;4.78;1.67;;;28.70;27.90;;;;;;5040054;28;20052;-60
2021/03/29 15:50:18;;;;;;;4.93;1.75;;;28.70;28.20;;;;;;5038501;28;20040;-60
2021/03/29 15:52:44;;;;;;;5.13;1.60;;;29.00;28.40;;;;;;5038457;28;20025;-60
2021/03/29 15:55:10;;;;;;;3.78;1.70;;;28.80;27.90;;;;;;5036584;28;20045;-60
2021/03/29 15:57:42;;;;;;;4.97;1.63;;;28.20;28.60;;;;;;5040003;28;20037;-60
2021/03/29 16:00:14;;;;;;;3.30;1.67;;;27.60;28.80;;;;;;5040092;28;20048;-61
2021/03/29 16:02:49;;;;;;;;;;;27.30;29.60;;;;;;5040084;28;20495;-60
2021/03/29 16:05:17;;;;;;;4.38;1.55;;;26.80;29.30;;;;;;5046589;28;19916;-60
2021/03/29 16:07:46;;;;;;;4.30;1.83;;;26.30;29.70;;;;;;5038982;28;20033;-60
2021/03/29 16:10:13;;;;;;;6.95;2.05;;;25.90;30.00;;;;;;5039756;28;20087;-60
2021/03/29 16:12:40;;;;;;;7.75;1.92;;;25.50;30.20;;;;;;5039774;28;20033;-60
2021/03/29 16:15:08;;;;;;;4.50;1.60;;;25.10;31.10;;;;;;5035508;28;20044;-60
2021/03/29 16:17:36;;;;;;;5.72;1.90;;;24.80;30.40;;;;;;5035802;28;20059;-60
2021/03/29 16:20:03;;;;;;;12.43;1.52;;;24.20;30.90;;;;;;5038506;28;20021;-60
2021/03/29 16:22:28;;;;;;;5.18;1.40;;;23.80;30.70;;;;;;5056166;28;20025;-60
2021/03/29 16:24:56;;;;;;;3.42;1.25;;;23.50;31.20;;;;;;5039422;28;20446;-60
2021/03/29 16:27:24;;;;;;;5.03;1.55;;;23.10;31.50;;;;;;5055596;28;20453;-60
2021/03/29 16:29:50;;;;;;;3.13;1.48;;;22.90;31.90;;;;;;5039687;28;20126;-60
2021/03/29 16:32:19;;;;;;;3.63;1.40;;;22.70;32.20;;;;;;5055894;28;21066;-60
2021/03/29 16:34:45;;;;;;;2.60;1.30;;;22.60;32.10;;;;;;5036932;28;20028;-61
2021/03/29 16:37:14;;;;;;;6.18;1.48;;;22.50;32.30;;;;;;5039588;28;20468;-61
2021/03/29 16:39:42;;;;;;;11.70;3.35;;;22.50;32.50;;;;;;5039636;28;20116;-60
2021/03/29 16:42:13;;;;;;;6.00;2.25;;;22.50;33.20;;;;;;5039047;28;20029;-60
2021/03/29 16:44:41;;;;;;;3.60;1.85;;;22.40;33.00;;;;;;5039801;28;20050;-60
2021/03/29 16:47:10;;;;;;;7.38;2.63;;;22.30;33.50;;;;;;5039656;28;20028;-60
2021/03/29 16:49:38;;;;;;;7.70;2.45;;;22.30;33.60;;;;;;5037786;28;20037;-60
2021/03/29 16:52:05;;;;;;;7.68;2.03;;;22.20;33.70;;;;;;5039304;28;20110;-60
2021/03/29 16:54:34;;;;;;;10.02;2.47;;;22.10;34.30;;;;;;5035823;28;20128;-60
2021/03/29 16:57:02;;;;;;;3.95;1.85;;;22.10;34.60;;;;;;5035865;28;20515;-60
2021/03/29 16:59:27;;;;;;;8.00;2.22;;;22.00;34.60;;;;;;5038071;28;20045;-60
2021/03/29 17:01:53;;;;;;;5.05;2.10;;;22.00;34.80;;;;;;5038462;28;20025;-60
2021/03/29 17:04:21;;;;;;;11.38;1.67;;;21.90;35.20;;;;;;5029674;28;20462;-58
2021/03/29 17:06:48;;;;;;;4.50;2.33;;;21.80;34.90;;;;;;5038460;28;20094;-60
2021/03/29 17:09:16;;;;;;;10.90;2.10;;;21.70;35.50;;;;;;5038564;28;20040;-59
2021/03/29 17:11:42;;;;;;;6.72;1.95;;;21.70;35.20;;;;;;5038685;28;20021;-60
2021/03/29 17:14:08;;;;;;;3.95;1.98;;;21.60;35.20;;;;;;5038581;28;20036;-60
2021/03/29 17:16:35;;;;;;;10.18;3.30;;;21.60;35.60;;;;;;5035169;28;20528;-60
2021/03/29 17:19:04;;;;;;;13.85;2.80;;;21.50;35.90;;;;;;5040016;28;20036;-60
2021/03/29 17:21:32;;;;;;;8.13;2.40;;;21.40;36.60;;;;;;5043689;28;20104;-60
2021/03/29 17:23:58;;;;;;;6.43;3.05;;;21.30;36.40;;;;;;5032467;28;20033;-60
2021/03/29 17:26:24;;;;;;;11.80;6.50;;;21.20;36.50;;;;;;5043647;28;20071;-60
2021/03/29 17:28:49;;;;;;;10.90;6.05;;;21.20;36.90;;;;;;5042718;28;20036;-60
2021/03/29 17:31:15;;;;;;;11.15;2.78;;;21.00;37.30;;;;;;5057708;28;20128;-61
2021/03/29 17:33:41;;;;;;;5.90;2.13;;;21.00;37.70;;;;;;5043182;28;21844;-60
2021/03/29 17:36:08;;;;;;;8.40;2.78;;;20.90;37.10;;;;;;5032297;28;20393;-60
2021/03/29 17:38:33;;;;;;;9.75;2.28;;;20.90;37.10;;;;;;5058411;28;20037;-60
2021/03/29 17:40:59;;;;;;;8.38;1.98;;;20.80;37.20;;;;;;5042399;28;20052;-61
2021/03/29 17:43:25;;;;;;;5.20;2.03;;;20.80;37.30;;;;;;5032599;28;20025;-60
2021/03/29 17:45:50;;;;;;;4.85;1.98;;;20.70;37.00;;;;;;5058527;28;22046;-59
2021/03/29 17:48:16;;;;;;;9.23;2.17;;;20.60;38.50;;;;;;5042386;28;20502;-60
2021/03/29 17:50:44;;;;;;;9.40;2.17;;;20.50;39.20;;;;;;5041574;28;20033;-60
2021/03/29 17:53:10;;;;;;;8.95;3.17;;;20.40;39.00;;;;;;5058280;28;20024;-60
2021/03/29 17:55:36;;;;;;;5.80;2.47;;;20.30;38.80;;;;;;5041788;28;20049;-60
2021/03/29 17:58:03;;;;;;;7.20;1.90;;;20.20;38.70;;;;;;5042418;28;20025;-60
2021/03/29 18:00:29;;;;;;;7.55;4.95;;;20.10;38.90;;;;;;5040929;28;20529;-60
2021/03/29 18:02:55;;;;;;;9.57;2.75;;;19.90;40.50;;;;;;5031790;28;20469;-60
2021/03/29 18:05:21;;;;;;;5.07;2.25;;;19.80;41.70;;;;;;5035076;28;20468;-60
2021/03/29 18:07:47;;;;;;;6.05;2.20;;;19.70;39.50;;;;;;5040711;28;20040;-60
2021/03/29 18:10:14;;;;;;;9.13;2.08;;;19.60;40.10;;;;;;5055010;28;20202;-60
2021/03/29 18:12:40;;;;;;;3.80;1.80;;;19.50;39.10;;;;;;5041571;28;20029;-60
2021/03/29 18:15:06;;;;;;;8.88;2.25;;;19.40;38.80;;;;;;5041787;28;20101;-60
2021/03/29 18:17:34;;;;;;;10.50;5.05;;;19.40;40.00;;;;;;5041674;28;20059;-60
2021/03/29 18:20:05;;;;;;;9.27;5.47;;;19.20;41.90;;;;;;5041909;28;20031;-60
2021/03/29 18:22:31;;;;;;;5.22;2.17;;;19.10;43.40;;;;;;5040868;28;20028;-60
2021/03/29 18:25:04;;;;;;;8.43;2.72;;;18.90;43.90;;;;;;5040685;28;20025;-60
2021/03/29 18:27:30;;;;;;;7.22;2.75;;;18.70;44.30;;;;;;5039365;28;20121;-60
2021/03/29 18:29:56;;;;;;;6.88;2.90;;;18.50;44.60;;;;;;5041615;28;20032;-59
2021/03/29 18:32:22;;;;;;;17.98;12.35;;;18.30;45.90;;;;;;5035348;28;20742;-60
2021/03/29 18:34:48;;;;;;;11.25;3.10;;;18.20;46.60;;;;;;5042410;28;20053;-60
2021/03/29 18:37:15;;;;;;;17.17;10.25;;;18.10;47.00;;;;;;5040731;28;22320;-59
2021/03/29 18:39:42;;;;;;;8.73;2.97;;;18.00;47.20;;;;;;5041523;28;20235;-60
2021/03/29 18:42:11;;;;;;;12.90;6.10;;;17.80;46.80;;;;;;5056882;28;20033;-60
2021/03/29 18:44:39;;;;;;;9.13;3.87;;;17.70;47.60;;;;;;5041422;28;20064;-60
2021/03/29 18:47:10;;;;;;;41.43;24.20;;;17.60;45.80;;;;;;5041004;28;20025;-60
2021/03/29 18:49:36;;;;;;;14.33;5.20;;;17.50;47.00;;;;;;5041144;28;20037;-60
2021/03/29 18:52:07;;;;;;;10.73;4.37;;;17.40;47.90;;;;;;5041224;28;20051;-60
2021/03/29 18:54:34;;;;;;;8.03;4.77;;;17.30;47.30;;;;;;5041153;28;20106;-60
2021/03/29 18:57:02;;;;;;;15.03;8.63;;;17.30;47.20;;;;;;5037726;28;20369;-60
2021/03/29 18:59:29;;;;;;;16.00;4.60;;;17.10;49.50;;;;;;5039951;28;20045;-63
2021/03/29 19:01:55;;;;;;;15.13;6.90;;;17.00;49.60;;;;;;5040115;28;20039;-60
2021/03/29 19:04:21;;;;;;;11.30;3.20;;;16.80;50.30;;;;;;5031322;28;20032;-61
2021/03/29 19:06:50;;;;;;;13.23;4.77;;;16.80;49.30;;;;;;5040877;28;20768;-61
2021/03/29 19:09:19;;;;;;;14.23;6.90;;;16.70;49.50;;;;;;5039785;28;20047;-61
2021/03/29 19:11:51;;;;;;;12.80;3.17;;;16.60;48.80;;;;;;5041031;28;20025;-61
2021/03/29 19:14:19;;;;;;;33.15;13.80;;;16.60;48.90;;;;;;5040945;28;20100;-61
2021/03/29 19:16:45;;;;;;;8.20;3.00;;;16.40;49.10;;;;;;5040892;28;20037;-61
2021/03/29 19:19:15;;;;;;;8.90;3.03;;;16.30;48.90;;;;;;5039493;28;20033;-61
2021/03/29 19:21:54;;;;;;;9.27;3.37;;;16.20;51.20;;;;;;5040885;28;20028;-60
2021/03/29 19:24:20;;;;;;;9.33;2.90;;;16.00;51.60;;;;;;5055365;28;20111;-60
2021/03/29 19:26:57;;;;;;;7.37;2.37;;;15.90;51.80;;;;;;5038944;28;20033;-60
2021/03/29 19:29:30;;;;;;;6.03;2.20;;;15.80;51.10;;;;;;5039764;28;20353;-60
2021/03/29 19:31:58;;;;;;;6.38;2.25;;;15.70;51.30;;;;;;5040337;28;20055;-60
2021/03/29 19:34:27;;;;;;;9.60;3.97;;;15.60;51.70;;;;;;5040496;28;20040;-61
2021/03/29 19:36:53;;;;;;;25.30;14.00;;;15.50;52.20;;;;;;5038421;28;20029;-60
2021/03/29 19:39:18;;;;;;;10.83;3.03;;;15.40;53.90;;;;;;5040521;28;20029;-60
2021/03/29 19:41:47;;;;;;;6.97;2.90;;;15.40;53.50;;;;;;5036205;28;20039;-60
2021/03/29 19:44:14;;;;;;;11.23;4.83;;;15.30;54.00;;;;;;5039351;28;20073;-60
2021/03/29 19:46:40;;;;;;;11.33;6.77;;;15.30;54.00;;;;;;5039315;28;20040;-60
2021/03/29 19:49:06;;;;;;;8.07;2.63;;;15.20;54.40;;;;;;5039138;28;20097;-60
2021/03/29 19:51:36;;;;;;;11.60;4.57;;;15.20;54.40;;;;;;5035184;28;20454;-60
2021/03/29 19:54:03;;;;;;;9.00;6.00;;;15.10;54.30;;;;;;5039688;28;20037;-60
2021/03/29 19:56:29;;;;;;;6.97;2.63;;;15.00;54.60;;;;;;5048092;28;20397;-60
2021/03/29 19:58:58;;;;;;;9.33;2.97;;;14.90;54.80;;;;;;5039384;28;20128;-60
2021/03/29 20:01:30;;;;;;;7.23;3.10;;;14.80;55.80;;;;;;5039452;28;20083;-60
2021/03/29 20:03:57;;;;;;;9.43;3.47;;;14.80;55.40;;;;;;5039745;28;20064;-60
2021/03/29 20:09:01;;;;;;;12.20;5.60;;;14.60;55.70;;;;;;5039984;28;20032;-62
2021/03/29 20:11:29;;;;;;;21.47;10.97;;;14.50;55.90;;;;;;5039344;28;20040;-61
2021/03/29 20:13:57;;;;;;;34.90;18.30;;;14.50;55.90;;;;;;5039571;28;20017;-61
2021/03/29 20:16:23;;;;;;;13.90;5.93;;;14.40;58.20;;;;;;5039743;28;20052;-61
2021/03/29 20:18:48;;;;;;;8.00;3.73;;;14.30;57.00;;;;;;5038895;28;20536;-60
2021/03/29 20:21:16;;;;;;;5.60;2.43;;;14.30;57.30;;;;;;5039745;28;20053;-60
2021/03/29 20:23:45;;;;;;;7.80;2.60;;;14.20;57.10;;;;;;5039879;28;20580;-61
2021/03/29 20:26:10;;;;;;;9.23;2.33;;;14.10;56.40;;;;;;5035864;28;20040;-60
2021/03/29 20:28:39;;;;;;;4.17;2.63;;;14.00;56.60;;;;;;5038677;28;20571;-60
2021/03/29 20:31:07;;;;;;;6.00;2.27;;;14.00;57.00;;;;;;5035114;28;20025;-61
2021/03/29 20:33:38;;;;;;;6.87;2.53;;;13.90;58.30;;;;;;5036242;28;20025;-61
2021/03/29 20:36:04;;;;;;;4.47;2.50;;;13.90;58.40;;;;;;5039427;28;20036;-61
2021/03/29 20:38:32;;;;;;;8.63;3.17;;;13.90;58.60;;;;;;5036993;28;20048;-60
2021/03/29 20:41:00;;;;;;;7.50;2.30;;;13.90;59.90;;;;;;5036524;28;20037;-60
2021/03/29 20:43:26;;;;;;;5.70;2.57;;;13.70;59.30;;;;;;5037088;28;20033;-61
2021/03/29 20:45:52;;;;;;;6.47;2.33;;;13.60;59.50;;;;;;5035583;28;20040;-60
2021/03/29 20:48:17;;;;;;;9.90;2.50;;;13.50;59.70;;;;;;5039056;28;20366;-60
2021/03/29 20:50:43;;;;;;;10.40;3.93;;;13.50;60.00;;;;;;5039925;28;20564;-60
2021/03/29 20:53:09;;;;;;;9.67;4.07;;;13.50;60.30;;;;;;5034721;28;20029;-60
2021/03/29 20:55:37;;;;;;;9.83;3.27;;;13.40;61.80;;;;;;5030504;28;20068;-61
2021/03/29 20:58:03;;;;;;;5.53;3.10;;;13.40;62.60;;;;;;5055437;28;20021;-60
2021/03/29 21:00:29;;;;;;;9.27;3.03;;;13.30;63.90;;;;;;5035521;28;20843;-61
2021/03/29 21:02:56;;;;;;;9.57;3.03;;;13.30;64.20;;;;;;5039258;28;20043;-60
2021/03/29 21:05:24;;;;;;;6.97;2.90;;;13.20;64.30;;;;;;5037572;28;20086;-60
2021/03/29 21:07:52;;;;;;;6.50;3.13;;;13.20;65.80;;;;;;5046448;28;20041;-60
2021/03/29 21:10:18;;;;;;;7.80;3.37;;;13.10;66.50;;;;;;5038454;28;20467;-60
2021/03/29 21:12:48;;;;;;;8.00;3.50;;;13.00;66.90;;;;;;5036522;28;20029;-60
2021/03/29 21:15:15;;;;;;;6.20;2.87;;;13.00;67.60;;;;;;5037310;28;20028;-60
2021/03/29 21:17:43;;;;;;;7.27;3.63;;;12.90;69.20;;;;;;5039317;28;20114;-61
2021/03/29 21:20:10;;;;;;;39.80;16.17;;;12.80;69.80;;;;;;5039262;28;20082;-60
2021/03/29 21:22:38;;;;;;;42.43;17.33;;;12.80;69.30;;;;;;5038723;28;20369;-60
2021/03/29 21:25:05;;;;;;;22.93;7.97;;;12.80;70.10;;;;;;5038337;28;20139;-61
2021/03/29 21:27:32;;;;;;;12.57;5.93;;;12.70;70.50;;;;;;5038953;28;20556;-60
2021/03/29 21:30:07;;;;;;;9.83;4.27;;;12.70;71.50;;;;;;5045341;28;20040;-60
2021/03/29 21:32:34;;;;;;;10.13;4.50;;;12.70;74.00;;;;;;5054178;28;20128;-60
2021/03/29 21:35:06;;;;;;;31.23;13.57;;;12.60;73.50;;;;;;5039361;28;20090;-60
2021/03/29 21:37:34;;;;;;;20.88;8.73;;;12.50;73.40;;;;;;5035742;28;20032;-60
2021/03/29 21:40:02;;;;;;;11.40;5.07;;;12.50;74.70;;;;;;5038114;28;20361;-60
2021/03/29 21:42:29;;;;;;;12.53;3.53;;;12.40;76.60;;;;;;5027279;28;20036;-60
2021/03/29 21:44:58;;;;;;;12.40;4.30;;;12.40;77.30;;;;;;5052361;28;20040;-60
2021/03/29 21:47:26;;;;;;;11.37;4.83;;;12.40;77.50;;;;;;5038685;28;20136;-59
2021/03/29 21:49:52;;;;;;;11.27;4.40;;;12.40;76.70;;;;;;5038465;28;20029;-59
2021/03/29 21:52:20;;;;;;;10.67;4.77;;;12.30;76.60;;;;;;5037309;28;20909;-59
2021/03/29 21:54:46;;;;;;;8.37;3.57;;;12.20;78.10;;;;;;5038551;28;20047;-60
2021/03/29 21:57:12;;;;;;;11.60;4.20;;;12.20;79.00;;;;;;5053550;28;20029;-60
2021/03/29 21:59:37;;;;;;;7.70;3.50;;;12.20;78.70;;;;;;5034783;28;20110;-60
2021/03/29 22:02:04;;;;;;;12.80;3.67;;;12.10;79.90;;;;;;5036107;28;20037;-60
2021/03/29 22:04:32;;;;;;;10.40;3.70;;;12.00;80.80;;;;;;5038224;28;20036;-60
2021/03/29 22:06:57;;;;;;;10.13;4.77;;;11.90;81.40;;;;;;5041054;28;20587;-60
2021/03/29 22:09:24;;;;;;;16.13;5.90;;;11.80;81.80;;;;;;5042711;28;20068;-60
2021/03/29 22:11:50;;;;;;;12.30;5.77;;;11.90;82.20;;;;;;5033526;28;20068;-59
2021/03/29 22:14:16;;;;;;;9.27;3.93;;;11.90;85.00;;;;;;5041136;28;20171;-60